RUTA 1 TRACK Barranco de Gabasa

Extensible Markup Language (XML) icon RUTA 1 TRACK Barranco de Gabasa.GPX — Extensible Markup Language (XML), 18 KB (18587 bytes)

Contenido del Archivo

<?xml version="1.0" encoding="UTF-8" standalone="no" ?>
<gpx xmlns="http://www.topografix.com/GPX/1/1" creator="CompeGPS" version="1.1" xmlns:xsi="http://www.w3.org/2001/XMLSchema-instance" xsi:schemaLocation="http://www.topografix.com/GPX/1/1 http://www.topografix.com/GPX/1/1/gpx.xsd">
  <metadata>
    <link href="http://www.compegps.com">
      <text>CompeGPS TEAM, SL</text>
    </link>
    <time>2019-06-12T16:21:28Z</time>
    <bounds maxlat="42.011851" maxlon="0.423343" minlat="42.003567" minlon="0.411638"/>
  </metadata>
  <trk>
    <name>TRACK Barranco de Gabasa</name>
    <trkseg>
      <trkpt lat="42.003567" lon="0.411638">
        <ele>592.5</ele>
        <time>2019-02-26T15:51:59Z</time>
      </trkpt>
      <trkpt lat="42.003579" lon="0.411757">
        <ele>592.3</ele>
        <time>2019-02-26T15:52:06Z</time>
      </trkpt>
      <trkpt lat="42.003602" lon="0.411891">
        <ele>593.5</ele>
        <time>2019-02-26T15:52:14Z</time>
      </trkpt>
      <trkpt lat="42.003677" lon="0.412035">
        <ele>594.5</ele>
        <time>2019-02-26T15:52:24Z</time>
      </trkpt>
      <trkpt lat="42.003741" lon="0.412154">
        <ele>596.9</ele>
        <time>2019-02-26T15:52:33Z</time>
      </trkpt>
      <trkpt lat="42.003858" lon="0.412296">
        <ele>597.7</ele>
        <time>2019-02-26T15:52:46Z</time>
      </trkpt>
      <trkpt lat="42.003906" lon="0.412401">
        <ele>598.8</ele>
        <time>2019-02-26T15:52:53Z</time>
      </trkpt>
      <trkpt lat="42.003906" lon="0.412476">
        <ele>599.2</ele>
        <time>2019-02-26T15:52:58Z</time>
      </trkpt>
      <trkpt lat="42.003934" lon="0.412677">
        <ele>600.5</ele>
        <time>2019-02-26T15:53:10Z</time>
      </trkpt>
      <trkpt lat="42.003906" lon="0.412898">
        <ele>600.1</ele>
        <time>2019-02-26T15:53:23Z</time>
      </trkpt>
      <trkpt lat="42.003906" lon="0.413001">
        <ele>600.1</ele>
        <time>2019-02-26T15:53:29Z</time>
      </trkpt>
      <trkpt lat="42.003919" lon="0.413094">
        <ele>600.2</ele>
        <time>2019-02-26T15:53:35Z</time>
      </trkpt>
      <trkpt lat="42.003955" lon="0.413189">
        <ele>600.1</ele>
        <time>2019-02-26T15:53:41Z</time>
      </trkpt>
      <trkpt lat="42.004038" lon="0.413326">
        <ele>599.1</ele>
        <time>2019-02-26T15:53:52Z</time>
      </trkpt>
      <trkpt lat="42.004130" lon="0.413424">
        <ele>599.7</ele>
        <time>2019-02-26T15:54:01Z</time>
      </trkpt>
      <trkpt lat="42.004306" lon="0.413493">
        <ele>600.2</ele>
        <time>2019-02-26T15:54:16Z</time>
      </trkpt>
      <trkpt lat="42.004440" lon="0.413542">
        <ele>600.8</ele>
        <time>2019-02-26T15:54:27Z</time>
      </trkpt>
      <trkpt lat="42.004527" lon="0.413602">
        <ele>601.7</ele>
        <time>2019-02-26T15:54:35Z</time>
      </trkpt>
      <trkpt lat="42.004545" lon="0.413697">
        <ele>603.6</ele>
        <time>2019-02-26T15:54:41Z</time>
      </trkpt>
      <trkpt lat="42.004491" lon="0.413761">
        <ele>604.6</ele>
        <time>2019-02-26T15:54:46Z</time>
      </trkpt>
      <trkpt lat="42.004455" lon="0.413813">
        <ele>605.6</ele>
        <time>2019-02-26T15:54:51Z</time>
      </trkpt>
      <trkpt lat="42.004494" lon="0.413854">
        <ele>606.6</ele>
        <time>2019-02-26T15:54:54Z</time>
      </trkpt>
      <trkpt lat="42.004540" lon="0.413895">
        <ele>607.5</ele>
        <time>2019-02-26T15:54:59Z</time>
      </trkpt>
      <trkpt lat="42.004609" lon="0.413934">
        <ele>608.3</ele>
        <time>2019-02-26T15:55:05Z</time>
      </trkpt>
      <trkpt lat="42.004643" lon="0.414003">
        <ele>609.7</ele>
        <time>2019-02-26T15:55:10Z</time>
      </trkpt>
      <trkpt lat="42.004805" lon="0.414179">
        <ele>612.1</ele>
        <time>2019-02-26T15:55:26Z</time>
      </trkpt>
      <trkpt lat="42.004849" lon="0.414243">
        <ele>612.7</ele>
        <time>2019-02-26T15:55:32Z</time>
      </trkpt>
      <trkpt lat="42.004929" lon="0.414359">
        <ele>614.8</ele>
        <time>2019-02-26T15:55:41Z</time>
      </trkpt>
      <trkpt lat="42.005009" lon="0.414462">
        <ele>616.1</ele>
        <time>2019-02-26T15:55:50Z</time>
      </trkpt>
      <trkpt lat="42.005086" lon="0.414598">
        <ele>617.4</ele>
        <time>2019-02-26T15:56:00Z</time>
      </trkpt>
      <trkpt lat="42.005153" lon="0.414791">
        <ele>619.0</ele>
        <time>2019-02-26T15:56:13Z</time>
      </trkpt>
      <trkpt lat="42.005156" lon="0.414972">
        <ele>619.9</ele>
        <time>2019-02-26T15:56:24Z</time>
      </trkpt>
      <trkpt lat="42.005169" lon="0.415118">
        <ele>619.8</ele>
        <time>2019-02-26T15:56:32Z</time>
      </trkpt>
      <trkpt lat="42.005199" lon="0.415314">
        <ele>621.6</ele>
        <time>2019-02-26T15:56:44Z</time>
      </trkpt>
      <trkpt lat="42.005254" lon="0.415430">
        <ele>621.7</ele>
        <time>2019-02-26T15:56:52Z</time>
      </trkpt>
      <trkpt lat="42.005326" lon="0.415572">
        <ele>622.6</ele>
        <time>2019-02-26T15:57:03Z</time>
      </trkpt>
      <trkpt lat="42.005408" lon="0.415742">
        <ele>623.3</ele>
        <time>2019-02-26T15:57:15Z</time>
      </trkpt>
      <trkpt lat="42.005454" lon="0.415861">
        <ele>624.9</ele>
        <time>2019-02-26T15:57:23Z</time>
      </trkpt>
      <trkpt lat="42.005519" lon="0.415997">
        <ele>625.3</ele>
        <time>2019-02-26T15:57:32Z</time>
      </trkpt>
      <trkpt lat="42.005573" lon="0.416157">
        <ele>628.5</ele>
        <time>2019-02-26T15:57:43Z</time>
      </trkpt>
      <trkpt lat="42.005627" lon="0.416280">
        <ele>629.9</ele>
        <time>2019-02-26T15:57:51Z</time>
      </trkpt>
      <trkpt lat="42.005690" lon="0.416383">
        <ele>627.5</ele>
        <time>2019-02-26T15:57:59Z</time>
      </trkpt>
      <trkpt lat="42.005774" lon="0.416574">
        <ele>626.0</ele>
        <time>2019-02-26T15:58:12Z</time>
      </trkpt>
      <trkpt lat="42.005808" lon="0.416766">
        <ele>628.2</ele>
        <time>2019-02-26T15:58:24Z</time>
      </trkpt>
      <trkpt lat="42.005836" lon="0.416939">
        <ele>631.0</ele>
        <time>2019-02-26T15:58:35Z</time>
      </trkpt>
      <trkpt lat="42.005878" lon="0.417015">
        <ele>631.0</ele>
        <time>2019-02-26T15:58:40Z</time>
      </trkpt>
      <trkpt lat="42.005914" lon="0.417127">
        <ele>631.7</ele>
        <time>2019-02-26T15:58:48Z</time>
      </trkpt>
      <trkpt lat="42.005952" lon="0.417230">
        <ele>632.2</ele>
        <time>2019-02-26T15:58:54Z</time>
      </trkpt>
      <trkpt lat="42.005974" lon="0.417328">
        <ele>633.4</ele>
        <time>2019-02-26T15:59:00Z</time>
      </trkpt>
      <trkpt lat="42.006017" lon="0.417443">
        <ele>634.2</ele>
        <time>2019-02-26T15:59:08Z</time>
      </trkpt>
      <trkpt lat="42.006046" lon="0.417558">
        <ele>635.0</ele>
        <time>2019-02-26T15:59:15Z</time>
      </trkpt>
      <trkpt lat="42.006078" lon="0.417671">
        <ele>635.4</ele>
        <time>2019-02-26T15:59:23Z</time>
      </trkpt>
      <trkpt lat="42.006101" lon="0.417786">
        <ele>636.5</ele>
        <time>2019-02-26T15:59:30Z</time>
      </trkpt>
      <trkpt lat="42.006132" lon="0.417881">
        <ele>636.9</ele>
        <time>2019-02-26T15:59:36Z</time>
      </trkpt>
      <trkpt lat="42.006158" lon="0.417946">
        <ele>637.0</ele>
        <time>2019-02-26T15:59:40Z</time>
      </trkpt>
      <trkpt lat="42.006160" lon="0.418026">
        <ele>638.7</ele>
        <time>2019-02-26T15:59:45Z</time>
      </trkpt>
      <trkpt lat="42.006199" lon="0.418086">
        <ele>638.3</ele>
        <time>2019-02-26T15:59:50Z</time>
      </trkpt>
      <trkpt lat="42.006233" lon="0.418261">
        <ele>640.2</ele>
        <time>2019-02-26T16:00:00Z</time>
      </trkpt>
      <trkpt lat="42.006248" lon="0.418377">
        <ele>643.2</ele>
        <time>2019-02-26T16:00:07Z</time>
      </trkpt>
      <trkpt lat="42.006304" lon="0.418488">
        <ele>644.7</ele>
        <time>2019-02-26T16:00:15Z</time>
      </trkpt>
      <trkpt lat="42.006331" lon="0.418591">
        <ele>649.4</ele>
        <time>2019-02-26T16:00:22Z</time>
      </trkpt>
      <trkpt lat="42.006385" lon="0.418681">
        <ele>653.4</ele>
        <time>2019-02-26T16:00:29Z</time>
      </trkpt>
      <trkpt lat="42.006405" lon="0.418717">
        <ele>654.3</ele>
        <time>2019-02-26T16:00:32Z</time>
      </trkpt>
      <trkpt lat="42.006459" lon="0.418720">
        <ele>650.6</ele>
        <time>2019-02-26T16:00:36Z</time>
      </trkpt>
      <trkpt lat="42.006497" lon="0.418627">
        <ele>643.9</ele>
        <time>2019-02-26T16:00:42Z</time>
      </trkpt>
      <trkpt lat="42.006562" lon="0.418640">
        <ele>641.1</ele>
        <time>2019-02-26T16:00:47Z</time>
      </trkpt>
      <trkpt lat="42.006606" lon="0.418660">
        <ele>641.2</ele>
        <time>2019-02-26T16:00:51Z</time>
      </trkpt>
      <trkpt lat="42.006637" lon="0.418614">
        <ele>640.8</ele>
        <time>2019-02-26T16:00:55Z</time>
      </trkpt>
      <trkpt lat="42.006688" lon="0.418681">
        <ele>642.5</ele>
        <time>2019-02-26T16:01:01Z</time>
      </trkpt>
      <trkpt lat="42.006727" lon="0.418722">
        <ele>643.0</ele>
        <time>2019-02-26T16:01:04Z</time>
      </trkpt>
      <trkpt lat="42.006737" lon="0.418823">
        <ele>643.1</ele>
        <time>2019-02-26T16:01:11Z</time>
      </trkpt>
      <trkpt lat="42.006750" lon="0.418957">
        <ele>642.6</ele>
        <time>2019-02-26T16:01:19Z</time>
      </trkpt>
      <trkpt lat="42.006760" lon="0.419096">
        <ele>641.9</ele>
        <time>2019-02-26T16:01:27Z</time>
      </trkpt>
      <trkpt lat="42.006766" lon="0.419237">
        <ele>641.4</ele>
        <time>2019-02-26T16:01:35Z</time>
      </trkpt>
      <trkpt lat="42.006773" lon="0.419343">
        <ele>640.8</ele>
        <time>2019-02-26T16:01:42Z</time>
      </trkpt>
      <trkpt lat="42.006807" lon="0.419433">
        <ele>641.0</ele>
        <time>2019-02-26T16:01:48Z</time>
      </trkpt>
      <trkpt lat="42.006837" lon="0.419585">
        <ele>642.0</ele>
        <time>2019-02-26T16:01:57Z</time>
      </trkpt>
      <trkpt lat="42.006848" lon="0.419691">
        <ele>642.4</ele>
        <time>2019-02-26T16:02:03Z</time>
      </trkpt>
      <trkpt lat="42.006843" lon="0.419845">
        <ele>643.0</ele>
        <time>2019-02-26T16:02:13Z</time>
      </trkpt>
      <trkpt lat="42.006881" lon="0.419964">
        <ele>644.6</ele>
        <time>2019-02-26T16:02:20Z</time>
      </trkpt>
      <trkpt lat="42.006920" lon="0.420036">
        <ele>645.4</ele>
        <time>2019-02-26T16:02:26Z</time>
      </trkpt>
      <trkpt lat="42.006956" lon="0.420172">
        <ele>646.2</ele>
        <time>2019-02-26T16:02:34Z</time>
      </trkpt>
      <trkpt lat="42.006977" lon="0.420299">
        <ele>646.7</ele>
        <time>2019-02-26T16:02:42Z</time>
      </trkpt>
      <trkpt lat="42.007026" lon="0.420471">
        <ele>647.8</ele>
        <time>2019-02-26T16:02:53Z</time>
      </trkpt>
      <trkpt lat="42.007095" lon="0.420687">
        <ele>648.4</ele>
        <time>2019-02-26T16:03:07Z</time>
      </trkpt>
      <trkpt lat="42.007123" lon="0.420770">
        <ele>648.9</ele>
        <time>2019-02-26T16:03:12Z</time>
      </trkpt>
      <trkpt lat="42.007075" lon="0.420875">
        <ele>650.3</ele>
        <time>2019-02-26T16:03:20Z</time>
      </trkpt>
      <trkpt lat="42.007185" lon="0.420999">
        <ele>650.0</ele>
        <time>2019-02-26T16:03:31Z</time>
      </trkpt>
      <trkpt lat="42.007258" lon="0.421115">
        <ele>652.7</ele>
        <time>2019-02-26T16:03:40Z</time>
      </trkpt>
      <trkpt lat="42.007417" lon="0.421244">
        <ele>654.1</ele>
        <time>2019-02-26T16:03:55Z</time>
      </trkpt>
      <trkpt lat="42.007544" lon="0.421324">
        <ele>653.4</ele>
        <time>2019-02-26T16:04:06Z</time>
      </trkpt>
      <trkpt lat="42.007644" lon="0.421334">
        <ele>652.0</ele>
        <time>2019-02-26T16:04:14Z</time>
      </trkpt>
      <trkpt lat="42.007698" lon="0.421321">
        <ele>651.3</ele>
        <time>2019-02-26T16:04:19Z</time>
      </trkpt>
      <trkpt lat="42.007760" lon="0.421350">
        <ele>651.2</ele>
        <time>2019-02-26T16:04:24Z</time>
      </trkpt>
      <trkpt lat="42.007896" lon="0.421445">
        <ele>653.4</ele>
        <time>2019-02-26T16:04:36Z</time>
      </trkpt>
      <trkpt lat="42.007945" lon="0.421486">
        <ele>654.5</ele>
        <time>2019-02-26T16:04:41Z</time>
      </trkpt>
      <trkpt lat="42.008053" lon="0.421625">
        <ele>656.7</ele>
        <time>2019-02-26T16:04:53Z</time>
      </trkpt>
      <trkpt lat="42.008131" lon="0.421736">
        <ele>659.3</ele>
        <time>2019-02-26T16:05:02Z</time>
      </trkpt>
      <trkpt lat="42.008231" lon="0.421792">
        <ele>660.9</ele>
        <time>2019-02-26T16:05:10Z</time>
      </trkpt>
      <trkpt lat="42.008337" lon="0.421831">
        <ele>661.7</ele>
        <time>2019-02-26T16:05:19Z</time>
      </trkpt>
      <trkpt lat="42.008419" lon="0.421873">
        <ele>662.3</ele>
        <time>2019-02-26T16:05:26Z</time>
      </trkpt>
      <trkpt lat="42.008522" lon="0.421916">
        <ele>662.9</ele>
        <time>2019-02-26T16:05:35Z</time>
      </trkpt>
      <trkpt lat="42.008662" lon="0.421914">
        <ele>662.3</ele>
        <time>2019-02-26T16:05:46Z</time>
      </trkpt>
      <trkpt lat="42.008736" lon="0.421901">
        <ele>661.8</ele>
        <time>2019-02-26T16:05:52Z</time>
      </trkpt>
      <trkpt lat="42.008801" lon="0.421857">
        <ele>661.5</ele>
        <time>2019-02-26T16:05:58Z</time>
      </trkpt>
      <trkpt lat="42.008831" lon="0.421798">
        <ele>660.8</ele>
        <time>2019-02-26T16:06:02Z</time>
      </trkpt>
      <trkpt lat="42.008875" lon="0.421710">
        <ele>659.8</ele>
        <time>2019-02-26T16:06:08Z</time>
      </trkpt>
      <trkpt lat="42.008904" lon="0.421690">
        <ele>659.7</ele>
        <time>2019-02-26T16:06:11Z</time>
      </trkpt>
      <trkpt lat="42.009014" lon="0.421785">
        <ele>661.3</ele>
        <time>2019-02-26T16:06:22Z</time>
      </trkpt>
      <trkpt lat="42.009115" lon="0.421847">
        <ele>662.5</ele>
        <time>2019-02-26T16:06:30Z</time>
      </trkpt>
      <trkpt lat="42.009264" lon="0.421878">
        <ele>664.4</ele>
        <time>2019-02-26T16:06:43Z</time>
      </trkpt>
      <trkpt lat="42.009457" lon="0.421841">
        <ele>666.7</ele>
        <time>2019-02-26T16:06:58Z</time>
      </trkpt>
      <trkpt lat="42.009522" lon="0.421816">
        <ele>666.9</ele>
        <time>2019-02-26T16:07:04Z</time>
      </trkpt>
      <trkpt lat="42.009625" lon="0.421692">
        <ele>667.2</ele>
        <time>2019-02-26T16:07:15Z</time>
      </trkpt>
      <trkpt lat="42.009754" lon="0.421615">
        <ele>668.4</ele>
        <time>2019-02-26T16:07:26Z</time>
      </trkpt>
      <trkpt lat="42.009901" lon="0.421561">
        <ele>669.3</ele>
        <time>2019-02-26T16:07:38Z</time>
      </trkpt>
      <trkpt lat="42.010060" lon="0.421612">
        <ele>669.4</ele>
        <time>2019-02-26T16:07:51Z</time>
      </trkpt>
      <trkpt lat="42.010165" lon="0.421630">
        <ele>669.6</ele>
        <time>2019-02-26T16:08:00Z</time>
      </trkpt>
      <trkpt lat="42.010214" lon="0.421671">
        <ele>669.5</ele>
        <time>2019-02-26T16:08:04Z</time>
      </trkpt>
      <trkpt lat="42.010263" lon="0.421738">
        <ele>669.2</ele>
        <time>2019-02-26T16:08:10Z</time>
      </trkpt>
      <trkpt lat="42.010297" lon="0.421769">
        <ele>669.0</ele>
        <time>2019-02-26T16:08:13Z</time>
      </trkpt>
      <trkpt lat="42.010390" lon="0.421875">
        <ele>669.9</ele>
        <time>2019-02-26T16:08:23Z</time>
      </trkpt>
      <trkpt lat="42.010508" lon="0.421972">
        <ele>670.6</ele>
        <time>2019-02-26T16:08:34Z</time>
      </trkpt>
      <trkpt lat="42.010622" lon="0.421996">
        <ele>670.7</ele>
        <time>2019-02-26T16:08:43Z</time>
      </trkpt>
      <trkpt lat="42.010784" lon="0.422104">
        <ele>670.0</ele>
        <time>2019-02-26T16:08:58Z</time>
      </trkpt>
      <trkpt lat="42.010853" lon="0.422166">
        <ele>670.3</ele>
        <time>2019-02-26T16:09:04Z</time>
      </trkpt>
      <trkpt lat="42.010933" lon="0.422235">
        <ele>670.2</ele>
        <time>2019-02-26T16:09:12Z</time>
      </trkpt>
      <trkpt lat="42.011062" lon="0.422333">
        <ele>670.6</ele>
        <time>2019-02-26T16:09:24Z</time>
      </trkpt>
      <trkpt lat="42.011168" lon="0.422434">
        <ele>670.0</ele>
        <time>2019-02-26T16:09:34Z</time>
      </trkpt>
      <trkpt lat="42.011258" lon="0.422583">
        <ele>670.3</ele>
        <time>2019-02-26T16:09:46Z</time>
      </trkpt>
      <trkpt lat="42.011343" lon="0.422776">
        <ele>669.8</ele>
        <time>2019-02-26T16:09:59Z</time>
      </trkpt>
      <trkpt lat="42.011418" lon="0.422885">
        <ele>669.6</ele>
        <time>2019-02-26T16:10:08Z</time>
      </trkpt>
      <trkpt lat="42.011469" lon="0.422965">
        <ele>669.7</ele>
        <time>2019-02-26T16:10:14Z</time>
      </trkpt>
      <trkpt lat="42.011639" lon="0.423176">
        <ele>670.4</ele>
        <time>2019-02-26T16:10:33Z</time>
      </trkpt>
      <trkpt lat="42.011742" lon="0.423266">
        <ele>670.5</ele>
        <time>2019-02-26T16:10:42Z</time>
      </trkpt>
      <trkpt lat="42.011840" lon="0.423320">
        <ele>670.1</ele>
        <time>2019-02-26T16:10:51Z</time>
      </trkpt>
      <trkpt lat="42.011851" lon="0.423343">
        <ele>670.1</ele>
        <time>2019-02-26T16:10:53Z</time>
      </trkpt>
    </trkseg>
  </trk>
</gpx>